Time;durP1;ratioP1;P1;durP2;ratioP2;P2;SDS_P1;SDS_P2;PMS_P1;PMS_P2;Temp;Humidity;BMP_temperature;BMP_pressure;BME280_temperature;BME280_humidity;BME280_pressure;Samples;Min_cycle;Max_cycle;Signal;HPM_P1;HPM_P2
2023/08/04 00:00:30;;;;;;;1.07;0.70;;;17.70;99.90;;;18.06;97.11;100010.38;5027191;28;20675;-65
2023/08/04 00:02:57;;;;;;;2.90;0.90;;;17.70;99.90;;;18.04;97.34;100012.38;5029427;28;21237;-65
2023/08/04 00:05:25;;;;;;;0.60;0.60;;;17.70;99.90;;;18.06;97.30;100006.94;5023831;28;21259;-66
2023/08/04 00:07:52;;;;;;;0.60;0.60;;;17.70;99.90;;;18.05;97.49;100003.47;5030968;28;20640;-65
2023/08/04 00:10:19;;;;;;;0.80;0.60;;;17.70;99.90;;;18.08;97.30;100011.03;5025573;28;20731;-66
2023/08/04 00:12:46;;;;;;;0.60;0.60;;;17.70;99.90;;;18.06;97.48;100005.09;5027900;28;20622;-65
2023/08/04 00:15:13;;;;;;;0.60;0.60;;;17.80;99.90;;;18.05;97.64;100013.19;5026225;28;20640;-65
2023/08/04 00:17:40;;;;;;;0.63;0.63;;;17.70;99.90;;;18.02;97.86;100009.06;5029187;28;21229;-66
2023/08/04 00:20:10;;;;;;;0.67;0.67;;;17.70;99.90;;;18.01;98.05;100011.91;5028460;28;21121;-67
2023/08/04 00:22:38;;;;;;;0.50;0.50;;;17.70;99.90;;;18.00;97.81;100005.78;5031921;28;20624;-66
2023/08/04 00:25:06;;;;;;;0.80;0.63;;;17.60;99.90;;;18.04;97.74;100001.00;5028615;28;21205;-65
2023/08/04 00:27:33;;;;;;;0.70;0.70;;;17.70;99.90;;;18.06;97.75;100001.66;5046048;28;20644;-66
2023/08/04 00:30:00;;;;;;;0.70;0.70;;;17.70;99.90;;;18.08;97.72;100002.31;5025549;28;20650;-65
2023/08/04 00:32:28;;;;;;;0.73;0.73;;;17.80;99.90;;;18.05;97.79;99997.34;5025460;28;20652;-65
2023/08/04 00:34:55;;;;;;;0.60;0.60;;;17.70;99.90;;;18.03;97.69;99997.53;5018944;28;21134;-66
2023/08/04 00:37:23;;;;;;;0.50;0.50;;;17.70;99.90;;;18.04;97.90;100001.00;5028260;28;20655;-65
2023/08/04 00:39:50;;;;;;;1.33;0.70;;;17.70;99.90;;;18.04;97.87;99996.53;5026608;28;21080;-65
2023/08/04 00:42:18;;;;;;;0.77;0.77;;;17.70;99.90;;;18.04;97.94;99991.25;5019107;28;20706;-66
2023/08/04 00:44:44;;;;;;;0.73;0.73;;;17.70;99.90;;;18.04;98.09;99996.53;5016633;28;20701;-66
2023/08/04 00:47:12;;;;;;;1.60;0.97;;;17.70;99.90;;;18.05;97.84;100007.91;5025499;28;20706;-65
2023/08/04 00:49:40;;;;;;;1.10;0.70;;;17.70;99.90;;;18.05;97.93;100003.47;5023596;28;20715;-68
2023/08/04 00:52:08;;;;;;;0.60;0.60;;;17.70;99.90;;;18.04;97.97;100009.72;5025782;28;20636;-65
2023/08/04 00:54:37;;;;;;;0.80;0.57;;;17.70;99.90;;;18.03;97.86;100005.47;5020201;28;20715;-65
2023/08/04 00:57:04;;;;;;;0.60;0.60;;;17.70;99.90;;;18.02;98.41;100009.06;5031778;28;20667;-66
2023/08/04 00:59:31;;;;;;;0.80;0.80;;;17.60;99.90;;;18.01;98.39;100007.44;5018547;28;20668;-64
2023/08/04 01:01:58;;;;;;;0.77;0.77;;;17.70;99.90;;;18.04;98.22;100003.66;5038259;28;20635;-65
2023/08/04 01:04:26;;;;;;;0.57;0.57;;;17.70;99.90;;;18.05;98.66;100000.00;5021801;28;20669;-64
2023/08/04 01:07:11;;;;;;;1.27;0.70;;;17.70;99.90;;;18.04;98.43;100001.81;5022248;28;20664;-65
2023/08/04 01:10:24;;;;;;;1.83;1.00;;;17.70;99.90;;;18.03;98.60;100000.19;5030117;28;20620;-64
2023/08/04 01:13:00;;;;;;;0.70;0.70;;;17.70;99.90;;;17.90;99.73;100001.72;5026995;28;20624;-66
2023/08/04 01:15:28;;;;;;;0.70;0.70;;;17.70;99.90;;;17.88;100.00;100003.72;5019593;28;20625;-66
2023/08/04 01:17:56;;;;;;;1.10;1.00;;;17.70;99.90;;;17.87;100.00;100002.88;5028343;28;21075;-65
2023/08/04 01:20:24;;;;;;;1.30;0.70;;;17.70;99.90;;;17.89;100.00;100003.53;5022586;28;20675;-66
2023/08/04 01:22:52;;;;;;;0.73;0.73;;;17.70;99.90;;;17.88;100.00;100004.53;5017064;28;20645;-63
2023/08/04 01:25:26;;;;;;;0.63;0.63;;;17.70;99.90;;;17.87;99.59;100000.25;5020890;28;20660;-67
2023/08/04 01:28:10;;;;;;;0.90;0.67;;;17.70;99.90;;;18.02;98.62;99998.53;5026255;28;21315;-66
2023/08/04 01:30:38;;;;;;;0.90;0.90;;;17.70;99.90;;;18.03;98.60;99997.53;5024638;28;21220;-66
2023/08/04 01:33:05;;;;;;;0.70;0.70;;;17.70;99.90;;;18.02;98.99;99995.06;5029379;28;21075;-65
2023/08/04 01:35:32;;;;;;;1.23;0.90;;;17.60;99.90;;;18.02;98.81;99998.53;5023857;28;21266;-66
2023/08/04 01:37:59;;;;;;;0.93;0.90;;;17.70;99.90;;;18.03;99.32;99989.63;5019210;28;21122;-65
2023/08/04 01:40:26;;;;;;;0.70;0.70;;;17.70;99.90;;;18.02;98.93;99992.41;5022046;28;20690;-67
2023/08/04 01:42:53;;;;;;;0.70;0.70;;;17.70;99.90;;;18.00;98.95;100002.31;5019344;28;21043;-65
2023/08/04 01:45:20;;;;;;;1.27;1.00;;;17.70;99.90;;;17.98;99.19;100005.13;5021773;28;20759;-66
2023/08/04 01:47:48;;;;;;;1.57;1.00;;;17.60;99.90;;;17.97;99.47;100000.03;5025447;28;20699;-65
2023/08/04 01:50:15;;;;;;;0.80;0.80;;;17.60;99.90;;;17.96;99.74;100001.84;5019825;28;20649;-67
2023/08/04 01:52:42;;;;;;;1.80;0.70;;;17.60;99.90;;;17.95;99.74;100002.03;5029845;28;21054;-66
2023/08/04 01:55:09;;;;;;;0.80;0.80;;;17.60;99.90;;;17.98;100.00;100009.59;5023665;28;20644;-65
2023/08/04 01:57:36;;;;;;;0.77;0.77;;;17.70;99.90;;;17.98;100.00;100007.78;5025536;28;20692;-65
2023/08/04 02:00:03;;;;;;;0.73;0.73;;;17.70;99.90;;;18.00;99.97;100011.06;5018422;28;20664;-67
2023/08/04 02:02:30;;;;;;;0.87;0.87;;;17.60;99.90;;;18.03;99.89;100013.38;5017907;28;20649;-66
2023/08/04 02:04:57;;;;;;;0.90;0.90;;;17.70;99.90;;;18.05;99.74;100006.09;5018130;28;20633;-67
2023/08/04 02:07:24;;;;;;;0.90;0.83;;;17.70;99.90;;;18.11;99.53;100012.50;5022974;28;20645;-66
2023/08/04 02:09:52;;;;;;;1.33;0.80;;;17.70;99.90;;;18.14;99.01;100007.72;5029178;28;20629;-64
2023/08/04 02:12:19;;;;;;;0.80;0.80;;;17.80;99.90;;;18.15;98.56;100011.16;5030581;28;21008;-65
2023/08/04 02:14:46;;;;;;;0.93;0.77;;;17.80;99.90;;;18.11;98.59;100007.22;5027719;28;20667;-67
2023/08/04 02:17:15;;;;;;;0.67;0.67;;;17.80;99.90;;;18.07;98.90;100004.13;5030255;28;20702;-65
2023/08/04 02:19:42;;;;;;;0.87;0.87;;;17.70;99.90;;;18.04;99.00;100001.00;5028749;28;20696;-65
2023/08/04 02:22:09;;;;;;;1.07;0.80;;;17.70;99.90;;;18.04;99.21;100001.81;5020922;28;20729;-65
2023/08/04 02:24:36;;;;;;;1.07;0.80;;;17.70;99.90;;;18.05;98.99;100003.47;5026698;28;20660;-66
2023/08/04 02:27:03;;;;;;;1.00;1.00;;;17.70;99.90;;;18.05;98.92;100010.56;5026221;28;20656;-65
2023/08/04 02:29:30;;;;;;;0.80;0.80;;;17.70;99.90;;;18.03;99.15;100012.53;5027347;28;20636;-67
2023/08/04 02:31:57;;;;;;;0.70;0.70;;;17.70;99.90;;;18.00;99.50;100012.88;5023966;28;20704;-65
2023/08/04 02:34:24;;;;;;;0.83;0.83;;;17.70;99.90;;;18.02;99.54;100024.09;5027339;28;20644;-65
2023/08/04 02:36:51;;;;;;;0.97;0.90;;;17.70;99.90;;;18.01;99.69;100019.81;5025970;28;20686;-65
2023/08/04 02:39:18;;;;;;;0.70;0.70;;;17.70;99.90;;;18.01;99.88;100018.00;5027929;28;20664;-66
2023/08/04 02:41:45;;;;;;;0.80;0.80;;;17.70;99.90;;;18.03;99.98;100018.66;5027589;28;20636;-65
2023/08/04 02:44:12;;;;;;;0.60;0.60;;;17.70;99.90;;;18.03;100.00;100018.66;5030388;28;20652;-67
2023/08/04 02:46:39;;;;;;;1.23;1.10;;;17.70;99.90;;;18.06;99.96;100020.94;5029172;28;20728;-65
2023/08/04 02:49:06;;;;;;;0.63;0.63;;;17.70;99.90;;;18.07;99.69;100019.94;5030191;28;20624;-65
2023/08/04 02:51:33;;;;;;;1.37;1.27;;;17.70;99.90;;;18.09;99.51;100020.59;5008553;28;21020;-65
2023/08/04 02:54:00;;;;;;;1.73;0.70;;;17.80;99.90;;;18.12;99.42;100019.44;5004080;28;20740;-67
2023/08/04 02:56:27;;;;;;;2.70;0.60;;;17.80;99.90;;;18.13;98.87;100023.72;5013999;28;20677;-66
2023/08/04 02:58:54;;;;;;;0.90;0.90;;;17.80;99.90;;;18.13;98.87;100021.06;5012629;28;20702;-65
2023/08/04 03:01:21;;;;;;;1.00;1.00;;;17.80;99.90;;;18.08;99.06;100023.41;5013488;28;20732;-68
2023/08/04 03:03:48;;;;;;;0.83;0.83;;;17.80;99.90;;;18.06;99.50;100031.50;5029933;28;20707;-65
2023/08/04 03:06:15;;;;;;;0.80;0.80;;;17.70;99.90;;;18.02;99.45;100024.09;5019586;28;20632;-66
2023/08/04 03:08:42;;;;;;;1.00;1.00;;;17.70;99.90;;;18.02;99.87;100032.84;5012596;28;20656;-65
2023/08/04 03:11:12;;;;;;;0.93;0.93;;;17.70;99.90;;;18.01;100.00;100033.00;5014730;28;20637;-64
2023/08/04 03:13:39;;;;;;;0.70;0.70;;;17.70;99.90;;;17.99;100.00;100030.56;5010695;28;20666;-67
2023/08/04 03:16:06;;;;;;;0.80;0.80;;;17.60;99.90;;;17.98;100.00;100030.72;5014390;28;21049;-65
2023/08/04 03:18:33;;;;;;;0.90;0.90;;;17.60;99.90;;;17.96;100.00;100036.16;5027419;28;20648;-69
2023/08/04 03:21:04;;;;;;;0.80;0.80;;;17.60;99.90;;;17.97;100.00;100029.09;5024470;28;20672;-64
2023/08/04 03:23:31;;;;;;;0.77;0.77;;;17.60;99.90;;;17.97;100.00;100035.19;5019737;28;20628;-64
2023/08/04 03:25:58;;;;;;;0.87;0.80;;;17.60;99.90;;;18.00;100.00;100034.81;5018689;28;20637;-66
2023/08/04 03:28:25;;;;;;;1.07;1.07;;;17.60;99.90;;;18.01;100.00;100033.84;5019835;28;20649;-66
2023/08/04 03:30:52;;;;;;;1.03;1.03;;;17.70;99.90;;;18.03;100.00;100038.94;5018246;28;20651;-63
2023/08/04 03:33:19;;;;;;;1.00;1.00;;;17.70;99.90;;;18.03;100.00;100041.59;5031327;28;20624;-64
2023/08/04 03:35:47;;;;;;;1.13;0.90;;;17.70;99.90;;;18.02;100.00;100038.13;5025486;28;21200;-65
2023/08/04 03:38:13;;;;;;;0.70;0.70;;;17.70;99.90;;;18.03;100.00;100044.22;5028209;28;20688;-66
2023/08/04 03:40:41;;;;;;;1.40;1.30;;;17.70;99.90;;;18.04;100.00;100040.59;5031906;28;21091;-66
2023/08/04 03:43:08;;;;;;;0.90;0.90;;;17.70;99.90;;;18.03;100.00;100042.41;5028942;28;20707;-66
2023/08/04 03:45:35;;;;;;;5.80;0.83;;;17.70;99.90;;;18.06;100.00;100043.88;5027846;28;20629;-66
2023/08/04 03:48:02;;;;;;;0.80;0.80;;;17.70;99.90;;;18.06;100.00;100043.88;5025017;28;20732;-67
2023/08/04 03:50:29;;;;;;;0.77;0.77;;;17.70;99.90;;;18.07;100.00;100045.53;5024667;28;20636;-65
2023/08/04 03:52:56;;;;;;;0.73;0.73;;;17.70;99.90;;;18.06;100.00;100046.53;5025951;28;20680;-67
2023/08/04 03:55:23;;;;;;;0.70;0.70;;;17.70;99.90;;;18.05;100.00;100043.06;5018220;28;20668;-67
2023/08/04 03:57:50;;;;;;;1.20;1.20;;;17.70;99.90;;;18.07;100.00;100045.53;5028375;28;20682;-67
2023/08/04 04:00:17;;;;;;;5.73;1.30;;;17.70;99.90;;;18.05;100.00;100050.97;5029952;28;20692;-66
2023/08/04 04:02:44;;;;;;;1.10;1.10;;;17.70;99.90;;;18.07;100.00;100050.81;5025554;28;20632;-65
2023/08/04 04:05:11;;;;;;;1.67;1.40;;;17.70;99.90;;;18.07;100.00;100049.00;5021822;28;21205;-66
2023/08/04 04:07:38;;;;;;;0.93;0.93;;;17.70;99.90;;;18.07;100.00;100049.00;5025240;28;20643;-65
2023/08/04 04:10:07;;;;;;;1.97;1.23;;;17.70;99.90;;;18.08;100.00;100049.81;5020318;28;20739;-65
2023/08/04 04:12:35;;;;;;;0.90;0.90;;;17.70;99.90;;;18.10;100.00;100048.63;5026231;28;20660;-65
2023/08/04 04:15:06;;;;;;;0.73;0.70;;;17.80;99.90;;;18.13;100.00;100053.56;5037383;28;20644;-65
2023/08/04 04:17:34;;;;;;;0.90;0.90;;;17.80;99.90;;;18.14;100.00;100054.41;5029231;28;20749;-66
2023/08/04 04:20:01;;;;;;;0.90;0.90;;;17.80;99.90;;;18.17;100.00;100054.03;5025520;28;20707;-66
2023/08/04 04:22:30;;;;;;;3.40;1.10;;;17.80;99.90;;;18.18;100.00;100059.19;5024669;28;20629;-66
2023/08/04 04:24:57;;;;;;;1.20;1.20;;;17.90;99.90;;;18.20;100.00;100062.47;5022910;28;20736;-66
2023/08/04 04:27:24;;;;;;;1.03;1.03;;;17.90;99.90;;;18.22;100.00;100062.28;5027758;28;20734;-66
2023/08/04 04:29:51;;;;;;;0.90;0.90;;;17.90;99.90;;;18.23;100.00;100069.22;5023968;28;20720;-66
2023/08/04 04:32:18;;;;;;;5.87;0.97;;;17.90;99.90;;;18.23;100.00;100064.75;5027808;28;20675;-69
2023/08/04 04:34:45;;;;;;;1.10;1.10;;;17.90;99.90;;;18.21;100.00;100064.09;5029388;28;20667;-65
2023/08/04 04:37:12;;;;;;;1.13;1.13;;;17.90;99.90;;;18.24;100.00;100069.03;5016511;28;20657;-66
2023/08/04 04:39:39;;;;;;;1.20;1.20;;;17.90;99.90;;;18.24;100.00;100076.97;5017638;28;20755;-65
2023/08/04 04:42:06;;;;;;;1.10;1.00;;;17.90;99.90;;;18.25;100.00;100083.88;5020222;28;20621;-65
2023/08/04 04:44:33;;;;;;;0.77;0.77;;;17.90;99.90;;;18.26;100.00;100074.97;5019725;28;20728;-65
2023/08/04 04:47:00;;;;;;;2.17;1.00;;;17.90;99.90;;;18.26;100.00;100076.78;5015866;28;20692;-65
2023/08/04 04:49:27;;;;;;;0.87;0.87;;;17.90;99.90;;;18.28;100.00;100077.44;5019368;28;20644;-65
2023/08/04 04:51:54;;;;;;;0.97;0.97;;;17.90;99.90;;;18.28;100.00;100083.53;5021748;28;20671;-65
2023/08/04 04:54:22;;;;;;;1.10;1.10;;;18.00;99.90;;;18.26;100.00;100084.69;5015122;28;21207;-65
2023/08/04 04:56:49;;;;;;;1.03;1.00;;;17.90;99.90;;;18.23;100.00;100088.50;5015922;28;20652;-66
2023/08/04 04:59:16;;;;;;;1.23;1.23;;;17.90;99.90;;;18.23;100.00;100085.88;5019093;28;20682;-66
2023/08/04 05:01:44;;;;;;;1.00;1.00;;;17.90;99.90;;;18.25;100.00;100091.00;5015727;28;20680;-65
2023/08/04 05:04:11;;;;;;;0.87;0.87;;;17.90;99.90;;;18.28;100.00;100088.00;5019469;28;20625;-66
2023/08/04 05:06:38;;;;;;;1.13;1.10;;;18.00;99.90;;;18.28;100.00;100088.00;5021265;28;20638;-66
2023/08/04 05:09:05;;;;;;;1.10;1.10;;;18.00;99.90;;;18.27;100.00;100086.38;5029772;28;20629;-65
2023/08/04 05:11:32;;;;;;;1.10;1.10;;;17.90;99.90;;;18.29;100.00;100089.66;5029639;28;20636;-66
2023/08/04 05:13:59;;;;;;;1.27;1.00;;;18.00;99.90;;;18.30;100.00;100086.00;5025345;28;20849;-67
2023/08/04 05:16:27;;;;;;;1.60;1.50;;;18.00;99.90;;;18.31;100.00;100090.31;5028651;28;20735;-66
2023/08/04 05:18:54;;;;;;;1.30;1.20;;;18.00;99.90;;;18.33;100.00;100099.69;5031090;28;20616;-65
2023/08/04 05:21:21;;;;;;;0.87;0.87;;;18.00;99.90;;;18.31;100.00;100093.78;5021766;28;20668;-67
2023/08/04 05:23:48;;;;;;;1.00;1.00;;;18.00;99.90;;;18.33;100.00;100096.22;5031249;28;20638;-66
2023/08/04 05:26:15;;;;;;;0.83;0.83;;;18.00;99.90;;;18.32;100.00;100100.69;5023143;28;20640;-66
2023/08/04 05:28:42;;;;;;;1.43;1.37;;;18.00;99.90;;;18.30;100.00;100102.69;5029589;28;20643;-65
2023/08/04 05:31:09;;;;;;;1.07;1.07;;;18.00;99.90;;;18.24;100.00;100100.72;5027300;28;20730;-65
2023/08/04 05:33:35;;;;;;;1.27;1.27;;;17.90;99.90;;;18.25;100.00;100101.56;5023598;28;20671;-65
2023/08/04 05:36:03;;;;;;;1.20;1.13;;;17.90;99.90;;;18.25;100.00;100110.28;5025401;28;20643;-65
2023/08/04 05:38:30;;;;;;;1.23;1.13;;;17.90;99.90;;;18.25;100.00;100105.00;5030847;28;20768;-66
2023/08/04 05:41:01;;;;;;;1.13;1.13;;;17.90;99.90;;;18.26;100.00;100106.66;5028034;28;20653;-66
2023/08/04 05:43:29;;;;;;;1.00;1.00;;;17.90;99.90;;;18.27;100.00;100110.94;5021627;28;20624;-66
2023/08/04 05:46:02;;;;;;;1.20;1.13;;;18.00;99.90;;;18.28;100.00;100109.13;5026738;28;20628;-66
2023/08/04 05:48:31;;;;;;;0.70;0.70;;;17.90;99.90;;;18.27;100.00;100116.22;5024022;28;20683;-66
2023/08/04 05:50:59;;;;;;;0.60;0.60;;;17.90;99.90;;;18.26;100.00;100113.75;5010011;28;20660;-66
2023/08/04 05:53:26;;;;;;;0.90;0.90;;;17.90;99.90;;;18.24;100.00;100121.84;5023078;28;20640;-66
2023/08/04 05:55:53;;;;;;;0.80;0.80;;;17.90;99.90;;;18.25;100.00;100122.69;5026195;28;20667;-65
2023/08/04 05:58:20;;;;;;;1.23;1.13;;;17.90;99.90;;;18.23;100.00;100120.19;5023236;28;20671;-66
2023/08/04 06:00:47;;;;;;;1.00;1.00;;;17.90;99.90;;;18.26;100.00;100119.03;5017508;28;21084;-65
2023/08/04 06:03:14;;;;;;;1.10;1.10;;;17.90;99.90;;;18.28;100.00;100131.06;5034335;28;21616;-68
2023/08/04 06:05:41;;;;;;;1.80;1.27;;;18.00;99.90;;;18.34;100.00;100125.09;5010418;28;21356;-63
2023/08/04 06:08:08;;;;;;;1.10;1.10;;;18.00;99.90;;;18.41;99.43;100120.78;5021683;28;20755;-69
2023/08/04 06:10:35;;;;;;;1.20;1.20;;;18.10;99.90;;;18.49;98.29;100133.16;5028314;28;20638;-65
2023/08/04 06:13:02;;;;;;;2.03;1.70;;;18.10;99.90;;;18.52;98.00;100127.53;5022583;28;20637;-67
2023/08/04 06:15:29;;;;;;;1.33;1.23;;;18.20;99.90;;;18.54;97.31;100136.94;5024652;28;20636;-66
2023/08/04 06:17:56;;;;;;;1.30;1.30;;;18.20;99.90;;;18.55;97.14;100143.84;5026316;28;20684;-67
2023/08/04 06:20:23;;;;;;;1.37;1.37;;;18.20;99.90;;;18.55;96.52;100143.84;5020887;28;20668;-66
2023/08/04 06:22:50;;;;;;;1.20;1.20;;;18.20;99.90;;;18.51;96.28;100139.91;5024306;28;20668;-68
2023/08/04 06:25:18;;;;;;;1.40;1.30;;;18.20;99.90;;;18.53;95.99;100145.84;5028172;28;20632;-66
2023/08/04 06:27:45;;;;;;;3.33;1.57;;;18.20;99.90;;;18.58;95.88;100151.44;5026447;28;20710;-66
2023/08/04 06:30:12;;;;;;;1.20;1.20;;;18.20;99.90;;;18.55;95.06;100146.50;5029541;28;21203;-66
2023/08/04 06:32:38;;;;;;;1.13;1.13;;;18.20;99.90;;;18.58;95.77;100151.44;5025598;28;21013;-65
2023/08/04 06:35:06;;;;;;;1.10;1.10;;;18.30;99.90;;;18.59;95.48;100155.72;5022144;28;20636;-67
2023/08/04 06:37:34;;;;;;;1.47;1.43;;;18.20;99.90;;;18.61;94.83;100160.03;5027595;28;20656;-65
2023/08/04 06:40:02;;;;;;;1.93;1.77;;;18.20;99.90;;;18.56;94.33;100161.38;5029350;28;20664;-66
2023/08/04 06:42:29;;;;;;;1.40;1.30;;;18.30;99.90;;;18.54;94.13;100158.06;5030294;28;21058;-66
2023/08/04 06:44:56;;;;;;;1.50;1.50;;;18.20;99.90;;;18.52;93.50;100162.72;5020847;28;20636;-66
2023/08/04 06:47:23;;;;;;;1.90;1.30;;;18.20;99.90;;;18.47;93.81;100172.94;5028115;28;20644;-66
2023/08/04 06:49:50;;;;;;;1.90;1.80;;;18.10;99.90;;;18.45;94.87;100169.66;5024558;28;20620;-65
2023/08/04 06:52:17;;;;;;;3.10;1.33;;;18.10;99.90;;;18.46;95.62;100175.78;5016256;28;20760;-67
2023/08/04 06:54:43;;;;;;;1.53;1.43;;;18.10;99.90;;;18.44;95.18;100170.66;5018259;28;20739;-65
2023/08/04 06:57:10;;;;;;;1.73;1.63;;;18.10;99.90;;;18.50;96.34;100174.44;5024416;28;21359;-67
2023/08/04 06:59:37;;;;;;;2.50;1.63;;;18.20;99.90;;;18.53;96.09;100174.91;5029695;28;20692;-65
2023/08/04 07:02:05;;;;;;;1.30;1.20;;;18.20;99.90;;;18.57;96.17;100176.19;5021282;28;20668;-66
2023/08/04 07:04:31;;;;;;;1.90;1.80;;;18.20;99.90;;;18.59;95.92;100182.13;5029915;28;20702;-66
2023/08/04 07:06:58;;;;;;;1.57;1.47;;;18.30;99.90;;;18.57;95.95;100181.50;5027004;28;20657;-65
2023/08/04 07:09:27;;;;;;;1.70;1.60;;;18.20;99.90;;;18.57;96.64;100178.00;5028822;28;21173;-66
2023/08/04 07:11:54;;;;;;;1.53;1.43;;;18.20;99.90;;;18.56;96.64;100171.94;5029765;28;20635;-65
2023/08/04 07:14:21;;;;;;;1.60;1.50;;;18.20;99.90;;;18.51;96.82;100178.72;5027455;28;20763;-67
2023/08/04 07:16:48;;;;;;;2.30;2.10;;;18.20;99.90;;;18.48;97.60;100182.50;5022790;28;20644;-67
2023/08/04 07:19:15;;;;;;;1.57;1.47;;;18.20;99.90;;;18.49;97.90;100180.69;5027107;28;20644;-65
2023/08/04 07:21:43;;;;;;;1.93;1.83;;;18.20;99.90;;;18.51;98.10;100189.28;5021804;28;21261;-66
2023/08/04 07:24:11;;;;;;;2.57;2.37;;;18.20;99.90;;;18.57;98.21;100193.88;5028941;28;20629;-65
2023/08/04 07:26:38;;;;;;;2.80;2.60;;;18.20;99.90;;;18.61;98.37;100189.09;5023890;28;20712;-66
2023/08/04 07:29:04;;;;;;;2.00;1.90;;;18.20;99.90;;;18.63;97.36;100193.22;5023038;28;21077;-66
2023/08/04 07:31:32;;;;;;;2.80;2.60;;;18.30;99.90;;;18.65;97.25;100193.03;5021434;28;20637;-66
2023/08/04 07:34:00;;;;;;;1.90;1.80;;;18.30;99.90;;;18.68;97.79;100198.78;5024698;28;20629;-66
2023/08/04 07:36:27;;;;;;;2.70;2.50;;;18.30;99.90;;;18.69;97.02;100199.59;5019569;28;20692;-65
2023/08/04 07:38:54;;;;;;;2.83;2.63;;;18.30;99.90;;;18.72;97.49;100205.38;5023246;28;20657;-67
2023/08/04 07:41:23;;;;;;;2.67;2.43;;;18.40;99.90;;;18.73;96.92;100208.84;5025882;28;21423;-65
2023/08/04 07:43:50;;;;;;;2.90;2.53;;;18.40;99.90;;;18.74;97.09;100199.94;5020523;28;20637;-65
2023/08/04 07:46:25;;;;;;;2.30;2.13;;;18.40;99.90;;;18.71;96.34;100211.66;5019865;28;20747;-65
2023/08/04 07:48:53;;;;;;;2.47;2.27;;;18.40;99.90;;;18.70;96.75;100209.19;5022325;28;20711;-66
2023/08/04 07:51:21;;;;;;;2.60;2.40;;;18.30;99.90;;;18.71;97.01;100208.19;5008739;28;20648;-65
2023/08/04 07:53:49;;;;;;;3.30;2.17;;;18.40;99.90;;;18.72;97.27;100208.00;5020442;28;20649;-65
2023/08/04 07:56:16;;;;;;;4.07;2.70;;;18.40;99.90;;;18.71;96.54;100216.94;5015108;28;20645;-68
2023/08/04 07:58:43;;;;;;;3.37;2.40;;;18.40;99.90;;;18.74;96.55;100213.94;5010450;28;20747;-66
2023/08/04 08:01:10;;;;;;;3.30;3.00;;;18.40;99.90;;;18.75;96.06;100218.25;5023754;28;20661;-65
2023/08/04 08:03:37;;;;;;;5.23;3.63;;;18.40;99.90;;;18.81;96.00;100216.72;5020177;28;20637;-65
2023/08/04 08:06:04;;;;;;;4.20;3.13;;;18.50;99.90;;;18.91;95.75;100214.69;5028656;28;20631;-66
2023/08/04 08:08:32;;;;;;;3.77;3.00;;;18.60;99.90;;;18.96;94.55;100217.63;5020803;28;20644;-65
2023/08/04 08:11:02;;;;;;;4.43;3.10;;;18.60;99.90;;;19.02;93.97;100219.56;5024987;28;20727;-65
2023/08/04 08:13:29;;;;;;;2.83;2.13;;;18.70;99.90;;;19.07;93.35;100227.81;5023059;28;20640;-63
2023/08/04 08:15:57;;;;;;;3.30;3.00;;;18.70;99.90;;;19.04;92.81;100226.34;5024050;28;20628;-65
2023/08/04 08:18:24;;;;;;;5.50;3.97;;;18.70;99.90;;;19.05;93.50;100233.28;5022588;28;20667;-67
2023/08/04 08:20:51;;;;;;;5.77;2.77;;;18.70;99.90;;;19.07;93.30;100230.47;5026308;28;20691;-66
2023/08/04 08:23:18;;;;;;;3.10;2.37;;;18.80;99.90;;;19.08;93.29;100232.13;5026481;28;20719;-66
2023/08/04 08:25:45;;;;;;;3.00;2.77;;;18.70;99.90;;;19.07;92.90;100230.47;5023822;28;21247;-66
2023/08/04 08:28:12;;;;;;;2.40;2.20;;;18.80;99.90;;;19.07;93.41;100233.94;5028795;28;20744;-64
2023/08/04 08:30:39;;;;;;;3.13;2.80;;;18.70;99.90;;;19.08;93.95;100245.34;5032359;28;21237;-65
2023/08/04 08:33:06;;;;;;;4.60;3.27;;;18.70;99.90;;;19.07;93.30;100241.88;5029061;28;20694;-64
2023/08/04 08:35:33;;;;;;;2.30;2.17;;;18.80;99.90;;;19.06;93.14;100242.06;5025840;28;20631;-65
2023/08/04 08:38:00;;;;;;;3.70;3.23;;;18.70;99.90;;;19.06;94.08;100236.78;5021532;28;20727;-65
2023/08/04 08:40:27;;;;;;;2.90;2.63;;;18.70;99.90;;;19.08;94.17;100243.50;5024054;28;20627;-68
2023/08/04 08:42:54;;;;;;;4.60;2.90;;;18.70;99.90;;;19.10;94.09;100246.78;5030348;28;20671;-65
2023/08/04 08:45:29;;;;;;;2.70;2.50;;;18.70;99.90;;;19.11;94.21;100245.81;5017327;28;20636;-65
2023/08/04 08:47:57;;;;;;;3.07;2.80;;;18.80;99.90;;;19.15;93.77;100252.41;5032086;28;21304;-65
2023/08/04 08:50:26;;;;;;;3.20;2.70;;;18.80;99.90;;;19.17;93.39;100255.69;5028867;28;21269;-65
2023/08/04 08:53:13;;;;;;;3.23;2.93;;;18.80;99.90;;;19.17;93.52;100258.34;5020364;28;20667;-65
2023/08/04 08:55:44;;;;;;;3.97;2.90;;;18.80;99.90;;;19.19;93.94;100258.16;5025192;28;21266;-65
2023/08/04 08:58:12;;;;;;;3.80;2.90;;;18.90;99.90;;;19.22;94.50;100257.81;5029241;28;20744;-63
2023/08/04 09:00:39;;;;;;;3.00;2.73;;;18.90;99.90;;;19.24;93.73;100261.94;5022798;28;20735;-66
2023/08/04 09:03:06;;;;;;;3.00;2.70;;;18.90;99.90;;;19.30;93.31;100265.69;5030907;28;21473;-65
2023/08/04 09:05:33;;;;;;;2.30;2.17;;;18.90;99.90;;;19.35;92.99;100266.03;5023945;28;20737;-66
2023/08/04 09:08:02;;;;;;;3.10;2.83;;;19.00;99.90;;;19.37;92.30;100265.84;5031883;28;20645;-69
2023/08/04 09:10:32;;;;;;;3.43;3.13;;;19.00;99.90;;;19.42;92.19;100272.28;5023923;28;20642;-66
2023/08/04 09:13:00;;;;;;;2.60;2.40;;;19.10;99.90;;;19.45;91.48;100273.72;5023392;28;20638;-66
2023/08/04 09:15:56;;;;;;;2.77;2.20;;;19.10;99.90;;;19.49;91.21;100275.84;5020411;28;21079;-65
2023/08/04 09:18:36;;;;;;;3.63;2.57;;;19.10;99.90;;;19.50;91.09;100279.31;5022225;28;20660;-65
2023/08/04 09:21:13;;;;;;;3.67;3.37;;;19.10;99.90;;;19.53;91.75;100279.00;5026158;28;20765;-65
2023/08/04 09:23:51;;;;;;;2.70;2.50;;;19.20;99.90;;;19.52;92.24;100277.31;5030612;28;20999;-65
2023/08/04 09:26:18;;;;;;;2.67;2.47;;;19.20;99.90;;;19.52;91.49;100280.81;5027998;28;20668;-65
2023/08/04 09:28:48;;;;;;;2.63;2.50;;;19.20;99.90;;;19.54;91.01;100284.09;5026533;28;20629;-65
2023/08/04 09:31:15;;;;;;;4.23;2.57;;;19.20;99.90;;;19.57;91.21;100278.44;5028251;28;20668;-66
2023/08/04 09:33:43;;;;;;;2.90;2.70;;;19.20;99.90;;;19.56;91.37;100284.75;5027527;28;20660;-64
2023/08/04 09:36:15;;;;;;;3.13;2.00;;;19.20;99.90;;;19.63;91.29;100288.34;5028758;28;21008;-64
2023/08/04 09:38:43;;;;;;;2.80;2.60;;;19.30;99.90;;;19.63;90.79;100285.69;5030690;28;20663;-65
2023/08/04 09:41:13;;;;;;;3.30;2.33;;;19.30;99.90;;;19.66;91.37;100280.03;5019600;28;20696;-64
2023/08/04 09:43:44;;;;;;;3.17;2.87;;;19.30;99.90;;;19.69;91.21;100287.63;5027314;28;20635;-66
2023/08/04 09:46:11;;;;;;;2.77;2.57;;;19.30;99.90;;;19.73;90.81;100290.72;5026985;28;20633;-65
2023/08/04 09:48:39;;;;;;;3.20;2.97;;;19.40;99.90;;;19.75;90.80;100292.22;5023179;28;20652;-65
2023/08/04 09:51:14;;;;;;;2.20;2.10;;;19.40;99.90;;;19.84;91.37;100288.50;5025389;28;20641;-66
2023/08/04 09:53:47;;;;;;;2.23;2.13;;;19.50;99.90;;;19.88;91.06;100297.72;5025550;28;20730;-63
2023/08/04 09:56:17;;;;;;;3.40;3.10;;;19.50;99.90;;;19.95;90.55;100292.56;5026742;28;20679;-70
2023/08/04 09:58:46;;;;;;;4.83;3.30;;;19.60;99.90;;;20.00;90.08;100284.88;5030864;28;20998;-65
2023/08/04 10:01:15;;;;;;;3.93;3.37;;;19.60;99.90;;;20.05;90.13;100293.13;5026525;28;20755;-67
2023/08/04 10:03:50;;;;;;;3.90;3.57;;;19.70;99.90;;;20.09;89.23;100299.69;5030389;28;20651;-65
2023/08/04 10:06:17;;;;;;;7.40;4.20;;;19.70;99.90;;;20.11;88.76;100298.53;5027300;28;20678;-65
2023/08/04 10:08:47;;;;;;;6.80;3.30;;;19.80;99.90;;;20.09;88.33;100289.94;5016782;28;20716;-65
2023/08/04 10:11:14;;;;;;;3.47;3.13;;;19.80;99.90;;;20.09;88.83;100300.53;5029212;28;20635;-68
2023/08/04 10:13:44;;;;;;;3.67;3.37;;;19.80;99.90;;;20.12;88.37;100300.16;5017452;28;20640;-65